Etna, OH (43018)

10:06 PM EDT on April 27, 2015 (GMT -0400)
Jefferson Ridge | | Change Station
CLOSE
Current Station
Personal Weather Station
Location: Pataskala, OH
Elevation: 1200 ft
Nearby Weather Stations
Active Advisory: Frost Advisory

Elev 1200 ft 40.02 °N, 82.64 °W | Updated 1 minute ago

Overcast
Overcast
40.1 °F
Feels Like 40 °F
N
1.0
Wind Variable Wind from NW
Gusts 1.0 mph

Today
High -- | Low -- °F
--% Chance of Precip.
Yesterday
High -- | Low -- °F
Precip. -- in
6:36 AM 8:21 PM
Waxing Gibbous, 69% visible
Pressure 30.06 in
Visibility 10.0 miles
Clouds Mostly Cloudy 5000 ft
Windchill 40 °F
Dew Point 32 °F
Humidity 74%
Rainfall 0.00 in
Snow Depth Not available.
UV 0.0 out of 12
Pollen 10.60 out of 12
Air Quality Not available.
Flu Activity Regional
METAR KCMH 280151Z 01005KT 10SM BKN050 07/01 A3005 RMK AO2 SLP179 T00720011

More Conditions Fewer Conditions

Pressure 30.06 in
Visibility 10.0 miles
Clouds Mostly Cloudy 5000 ft
Windchill 40 °F
Dew Point 32 °F
Humidity 74%
Rainfall 0.00 in
Snow Depth Not available.
UV 0.0 out of 12
Pollen 10.60 out of 12
Air Quality Not available.
Flu Activity Regional
METAR KCMH 280151Z 01005KT 10SM BKN050 07/01 A3005 RMK AO2 SLP179 T00720011

More Conditions Fewer Conditions

10-Day Weather Forecast

Almanac

Astronomy

Apr. 27, 2015 Rise Set
Actual Time
Civil Twilight
Nautical Twilight
Astronomical Twilight
Moon
Length of Visible Light
Length of Day
Tomorrow will be .
, % of the Moon is Illuminated

Today's Extremes

State Highs State Lows

Community

WunderPhotos

Upload Photos

1,817,508 photos uploaded!

WunderBlogs® & News

Nearby

Air Quality

  Air Quality AQ Index Pollutant
Not available.

Snow Depth

Station Depth Elevation

Earthquake Activity

City Distance Mag. Time & Date
Minimum magnitude displayed is 2.5.

Coastal Water Temperatures

Place Temperature

Stations

Nearby Weather Stations

Station Location Temp. Windchill Dew Point Humidity Wind Precip. Elev Updated Type
                   
Frost Advisory
Statement as of 7:19 PM EDT on April 27, 2015

... Frost advisory remains in effect from 2 am to 9 am EDT
Tuesday...

* temperatures... lows in the mid 30s.

* Impacts... sensitive plants left outdoors and unprotected may
be damaged.

Precautionary/preparedness actions...

A frost advisory means that frost is likely. Sensitive outdoor
plants may be killed if left uncovered.